Time;durP1;ratioP1;P1;durP2;ratioP2;P2;SDS_P1;SDS_P2;PMS_P1;PMS_P2;Temp;Humidity;BMP_temperature;BMP_pressure;BME280_temperature;BME280_humidity;BME280_pressure;Samples;Min_cycle;Max_cycle;Signal;HPM_P1;HPM_P2
2021/08/07 00:01:46;;;;;;;10.95;5.00;;;12.80;99.90;;;;;;5070962;28;20186;-87
2021/08/07 00:04:34;;;;;;;7.55;4.63;;;12.90;99.90;;;;;;5053743;28;20033;-86
2021/08/07 00:07:27;;;;;;;8.85;4.85;;;12.90;99.90;;;;;;5088480;28;20132;-87
2021/08/07 00:10:15;;;;;;;9.77;4.95;;;12.80;99.90;;;;;;5070616;28;20021;-88
2021/08/07 00:13:02;;;;;;;8.43;4.88;;;12.80;99.90;;;;;;5076493;28;20048;-87
2021/08/07 00:15:50;;;;;;;7.47;4.97;;;12.90;99.90;;;;;;5069829;28;20045;-87
2021/08/07 00:18:37;;;;;;;7.03;4.95;;;12.90;99.90;;;;;;5068811;28;20060;-88
2021/08/07 00:21:26;;;;;;;9.48;5.40;;;12.90;99.90;;;;;;5057080;28;20053;-87
2021/08/07 00:24:14;;;;;;;6.65;4.68;;;12.80;99.90;;;;;;5068523;28;20385;-87
2021/08/07 00:27:01;;;;;;;11.85;4.80;;;12.80;99.90;;;;;;5068421;28;20535;-87
2021/08/07 00:29:49;;;;;;;10.75;4.95;;;12.80;99.90;;;;;;5063562;28;20166;-87
2021/08/07 00:32:38;;;;;;;6.70;4.13;;;12.80;99.90;;;;;;5049457;28;20048;-87
2021/08/07 00:35:27;;;;;;;8.85;4.90;;;12.80;99.90;;;;;;5067050;28;20462;-86
2021/08/07 00:38:15;;;;;;;7.65;4.55;;;12.80;99.90;;;;;;5064137;28;20471;-87
2021/08/07 00:41:03;;;;;;;7.03;4.20;;;12.80;99.90;;;;;;5058033;28;20106;-88
2021/08/07 00:43:50;;;;;;;7.25;4.30;;;12.80;99.90;;;;;;5066845;28;20045;-87
2021/08/07 00:46:37;;;;;;;11.93;4.93;;;12.90;99.90;;;;;;5061822;28;20083;-88
2021/08/07 00:49:24;;;;;;;9.40;6.00;;;12.90;99.90;;;;;;5062075;28;20078;-87
2021/08/07 00:52:15;;;;;;;7.95;5.45;;;13.00;99.90;;;;;;5058392;28;20084;-86
2021/08/07 00:55:05;;;;;;;9.27;6.03;;;13.00;99.90;;;;;;5060829;28;20055;-88
2021/08/07 00:57:53;;;;;;;11.65;5.13;;;13.00;99.90;;;;;;5059785;28;20124;-89
2021/08/07 01:00:40;;;;;;;11.80;6.22;;;13.00;99.90;;;;;;5057623;28;20053;-88
2021/08/07 01:03:39;;;;;;;10.00;5.47;;;13.10;99.90;;;;;;5054548;28;20049;-89
2021/08/07 01:06:48;;;;;;;6.82;4.72;;;13.10;99.90;;;;;;5068228;28;20044;-88
2021/08/07 01:10:30;;;;;;;9.18;5.05;;;13.20;99.90;;;;;;4988152;28;20098;-88
2021/08/07 01:13:23;;;;;;;8.75;4.97;;;13.20;99.90;;;;;;4977554;28;20212;-88
2021/08/07 01:16:12;;;;;;;;;;;13.20;99.90;;;;;;4983870;28;20057;-87
2021/08/07 01:19:00;;;;;;;7.15;4.47;;;13.20;99.90;;;;;;4980397;28;19922;-87
2021/08/07 01:22:00;;;;;;;6.93;5.15;;;13.20;99.90;;;;;;4982254;28;20061;-87
2021/08/07 01:24:57;;;;;;;5.85;3.85;;;13.30;99.90;;;;;;4986899;28;20513;-88
2021/08/07 01:27:45;;;;;;;8.95;3.97;;;13.30;99.90;;;;;;4991885;28;20136;-88
2021/08/07 01:30:34;;;;;;;6.03;3.75;;;13.30;99.90;;;;;;4984633;28;20445;-88
2021/08/07 01:33:28;;;;;;;5.13;3.42;;;13.40;99.90;;;;;;4975639;28;20566;-88
2021/08/07 01:36:16;;;;;;;13.02;3.65;;;13.40;99.90;;;;;;4975498;28;20054;-90
2021/08/07 01:39:04;;;;;;;5.93;3.20;;;13.40;99.90;;;;;;4987160;28;20054;-88
2021/08/07 01:41:51;;;;;;;5.43;3.13;;;13.50;99.90;;;;;;5042330;28;20141;-88
2021/08/07 01:44:39;;;;;;;7.75;3.53;;;13.50;99.90;;;;;;5064949;28;20068;-87
2021/08/07 01:47:44;;;;;;;9.10;3.63;;;13.50;99.90;;;;;;5061363;28;20051;-88
2021/08/07 01:50:44;;;;;;;7.50;3.28;;;13.50;99.90;;;;;;5047802;28;20418;-87
2021/08/07 01:53:34;;;;;;;5.85;3.20;;;13.50;99.90;;;;;;5062583;28;20547;-88
2021/08/07 01:56:33;;;;;;;6.70;3.42;;;13.60;99.90;;;;;;5053989;28;20072;-88
2021/08/07 01:59:24;;;;;;;7.82;3.17;;;13.60;99.90;;;;;;5056041;28;20049;-88
2021/08/07 02:02:14;;;;;;;4.25;2.80;;;13.60;99.90;;;;;;5056019;28;20060;-88
2021/08/07 02:05:03;;;;;;;4.95;3.30;;;13.70;99.90;;;;;;5046419;28;20177;-88
2021/08/07 02:07:52;;;;;;;5.40;3.08;;;13.70;99.90;;;;;;5059348;28;20041;-89
2021/08/07 02:10:46;;;;;;;7.53;3.13;;;13.70;99.90;;;;;;5060318;28;20048;-87
2021/08/07 02:13:37;;;;;;;6.35;3.08;;;13.80;99.90;;;;;;5053469;28;20195;-88
2021/08/07 02:16:24;;;;;;;11.63;2.65;;;13.80;99.90;;;;;;5059694;28;20040;-88
2021/08/07 02:19:13;;;;;;;3.85;2.53;;;13.90;99.90;;;;;;5060258;28;20064;-88
2021/08/07 02:22:00;;;;;;;7.35;2.58;;;14.00;99.90;;;;;;5060111;28;20090;-89
2021/08/07 02:24:48;;;;;;;5.95;2.85;;;14.10;99.90;;;;;;5063557;28;20091;-88
2021/08/07 02:27:36;;;;;;;6.25;2.55;;;14.20;99.90;;;;;;5070287;28;20429;-87
2021/08/07 02:30:24;;;;;;;7.03;2.53;;;14.30;99.90;;;;;;5067436;28;20044;-88
2021/08/07 02:33:13;;;;;;;5.15;2.45;;;14.20;99.90;;;;;;5068529;28;20060;-88
2021/08/07 02:36:01;;;;;;;8.93;2.60;;;14.20;99.90;;;;;;5060536;28;20120;-87
2021/08/07 02:38:52;;;;;;;5.75;2.70;;;14.30;99.90;;;;;;5062896;28;20041;-88
2021/08/07 02:41:40;;;;;;;4.95;2.50;;;14.30;99.90;;;;;;5066009;28;20087;-87
2021/08/07 02:44:30;;;;;;;5.65;2.50;;;14.20;99.90;;;;;;5058781;28;20045;-88
2021/08/07 02:47:20;;;;;;;5.38;2.38;;;14.20;99.90;;;;;;5041963;28;20157;-87
2021/08/07 02:50:09;;;;;;;8.77;2.40;;;14.10;99.90;;;;;;5055990;28;20700;-87
2021/08/07 02:52:56;;;;;;;6.00;2.13;;;14.10;99.90;;;;;;5069079;28;20041;-87
2021/08/07 02:55:48;;;;;;;5.28;2.40;;;14.10;99.90;;;;;;5073308;28;20044;-88
2021/08/07 02:58:35;;;;;;;5.05;2.65;;;14.00;99.90;;;;;;5056271;28;20052;-87
2021/08/07 03:01:23;;;;;;;4.10;2.33;;;13.90;99.90;;;;;;5051647;28;20041;-87
2021/08/07 03:04:11;;;;;;;5.78;2.47;;;13.80;99.90;;;;;;5067062;28;20448;-87
2021/08/07 03:06:58;;;;;;;4.32;3.08;;;13.70;99.90;;;;;;5059211;28;20045;-88
2021/08/07 03:09:46;;;;;;;8.27;3.00;;;13.60;99.90;;;;;;5045888;28;20049;-87
2021/08/07 03:12:34;;;;;;;5.00;3.00;;;13.50;99.90;;;;;;5064774;28;20044;-88
2021/08/07 03:15:23;;;;;;;4.65;3.03;;;13.50;99.90;;;;;;5053644;28;20159;-89
2021/08/07 03:18:12;;;;;;;7.68;2.88;;;13.40;99.90;;;;;;5041889;28;20049;-88
2021/08/07 03:20:59;;;;;;;6.13;2.70;;;13.30;99.90;;;;;;5068357;28;20056;-87
2021/08/07 03:23:46;;;;;;;7.18;3.50;;;13.30;99.90;;;;;;5058941;28;20048;-88
2021/08/07 03:26:33;;;;;;;5.97;3.30;;;13.20;99.90;;;;;;5052196;28;20045;-87
2021/08/07 03:29:23;;;;;;;6.57;3.22;;;13.10;99.90;;;;;;5061426;28;20152;-87
2021/08/07 03:32:10;;;;;;;7.55;3.22;;;13.10;99.90;;;;;;5064704;28;20665;-87
2021/08/07 03:34:58;;;;;;;7.97;3.10;;;13.00;99.90;;;;;;5063061;28;20465;-87
2021/08/07 03:37:47;;;;;;;11.10;3.90;;;13.00;99.90;;;;;;5054001;28;20063;-87
2021/08/07 03:40:38;;;;;;;5.70;2.75;;;13.10;99.90;;;;;;5047045;28;20041;-87
2021/08/07 03:43:28;;;;;;;9.63;3.08;;;13.10;99.90;;;;;;5054126;28;20041;-88
2021/08/07 03:46:18;;;;;;;5.68;3.15;;;13.00;99.90;;;;;;5055786;28;20051;-88
2021/08/07 03:49:05;;;;;;;5.20;3.17;;;13.00;99.90;;;;;;5026404;28;20166;-88
2021/08/07 03:51:55;;;;;;;7.85;3.30;;;13.00;99.90;;;;;;5065298;28;20134;-86
2021/08/07 03:54:42;;;;;;;9.25;3.53;;;12.90;99.90;;;;;;5057192;28;20087;-87
2021/08/07 03:57:32;;;;;;;6.50;2.88;;;12.90;99.90;;;;;;5040465;28;20049;-88
2021/08/07 04:00:21;;;;;;;5.55;3.10;;;12.90;99.90;;;;;;5057540;28;20151;-88
2021/08/07 04:04:01;;;;;;;9.50;3.08;;;13.00;99.90;;;;;;5066230;28;20128;-87
2021/08/07 04:07:09;;;;;;;5.47;3.50;;;13.00;99.90;;;;;;5055764;28;20072;-88
2021/08/07 04:09:56;;;;;;;7.28;3.40;;;13.00;99.90;;;;;;5067196;28;20426;-87
2021/08/07 04:12:44;;;;;;;6.97;3.30;;;13.00;99.90;;;;;;5058532;28;20072;-88
2021/08/07 04:15:31;;;;;;;6.03;3.60;;;12.90;99.90;;;;;;5045006;28;20095;-86
2021/08/07 04:18:23;;;;;;;6.07;3.50;;;12.90;99.90;;;;;;5062064;28;20147;-88
2021/08/07 04:21:11;;;;;;;7.68;3.80;;;12.90;99.90;;;;;;5046817;28;20080;-88
2021/08/07 04:24:01;;;;;;;7.25;3.40;;;13.00;99.90;;;;;;5067044;28;20052;-87
2021/08/07 04:26:50;;;;;;;5.53;3.25;;;13.00;99.90;;;;;;5061059;28;20488;-86
2021/08/07 04:29:37;;;;;;;5.07;3.45;;;13.10;99.90;;;;;;5063432;28;20516;-87
2021/08/07 04:32:25;;;;;;;8.02;3.53;;;13.10;99.90;;;;;;5060803;28;20447;-87
2021/08/07 04:35:13;;;;;;;6.50;3.38;;;13.10;99.90;;;;;;5056046;28;20040;-86
2021/08/07 04:38:03;;;;;;;5.82;3.35;;;13.10;99.90;;;;;;5067554;28;20056;-87
2021/08/07 04:40:50;;;;;;;9.52;4.05;;;13.10;99.90;;;;;;5061315;28;20396;-87
2021/08/07 04:43:38;;;;;;;8.13;3.75;;;13.00;99.90;;;;;;5068940;28;20053;-88
2021/08/07 04:46:26;;;;;;;7.25;3.88;;;13.00;99.90;;;;;;5054868;28;20511;-86
2021/08/07 04:49:15;;;;;;;6.47;4.00;;;13.00;99.90;;;;;;5048146;28;20481;-88
2021/08/07 04:52:04;;;;;;;9.85;4.70;;;13.00;99.90;;;;;;5053280;28;20041;-87
2021/08/07 04:54:51;;;;;;;7.25;3.47;;;13.00;99.90;;;;;;5064536;28;20041;-87
2021/08/07 04:57:38;;;;;;;8.50;3.80;;;13.10;99.90;;;;;;5053352;28;20044;-87
2021/08/07 05:00:26;;;;;;;8.30;4.00;;;13.20;99.90;;;;;;5031984;28;20148;-87
2021/08/07 05:03:16;;;;;;;7.60;3.53;;;13.40;99.90;;;;;;5057059;28;20098;-88
2021/08/07 05:06:03;;;;;;;3.92;3.13;;;13.50;99.90;;;;;;5047933;28;20111;-85
2021/08/07 05:08:53;;;;;;;5.07;3.25;;;13.60;99.90;;;;;;5054633;28;20084;-85
2021/08/07 05:11:41;;;;;;;4.93;2.97;;;13.80;99.90;;;;;;5038742;28;20041;-85
2021/08/07 05:14:28;;;;;;;13.02;3.05;;;13.90;99.90;;;;;;5066547;28;20226;-86
2021/08/07 05:17:15;;;;;;;9.27;3.08;;;14.00;99.90;;;;;;5067237;28;20055;-85
2021/08/07 05:24:10;;;;;;;8.80;2.97;;;14.10;99.90;;;;;;5076476;28;20020;-85
2021/08/07 05:31:18;;;;;;;4.03;2.80;;;14.10;99.90;;;;;;5049231;28;20036;-88
2021/08/07 05:34:09;;;;;;;6.65;3.28;;;14.20;99.90;;;;;;5076760;28;20083;-87
2021/08/07 05:36:56;;;;;;;6.32;3.28;;;14.20;99.90;;;;;;5062601;28;20040;-87
2021/08/07 05:50:55;;;;;;;6.78;2.30;;;14.80;99.90;;;;;;5051510;28;20012;-89
2021/08/07 06:06:36;;;;;;;3.28;1.70;;;16.40;99.90;;;;;;5044935;28;20329;-90
2021/08/07 06:16:36;;;;;;;4.78;2.00;;;16.70;99.90;;;;;;5021404;22;20055;-91
2021/08/07 06:19:49;;;;;;;5.50;1.85;;;16.80;99.90;;;;;;4926056;29;20050;-90
2021/08/07 06:26:49;;;;;;;4.80;2.03;;;17.10;99.90;;;;;;4935082;29;20023;-89
2021/08/07 06:33:49;;;;;;;6.53;2.10;;;17.40;99.90;;;;;;4891469;29;20374;-92
2021/08/07 06:45:16;;;;;;;3.53;1.70;;;18.60;99.90;;;;;;4934285;29;20103;-89
2021/08/07 06:48:30;;;;;;;3.22;1.63;;;19.10;99.90;;;;;;4923157;29;20066;-90
2021/08/07 06:51:45;;;;;;;2.17;1.33;;;19.40;99.90;;;;;;4927581;29;20043;-89
2021/08/07 06:54:54;;;;;;;3.70;1.80;;;19.50;99.90;;;;;;4932735;29;20055;-90
2021/08/07 06:57:41;;;;;;;;;;;19.70;99.90;;;;;;4925994;29;20039;-90
2021/08/07 07:00:28;;;;;;;5.88;1.50;;;19.80;99.90;;;;;;4936499;29;19923;-90
2021/08/07 07:03:17;;;;;;;6.93;1.67;;;20.20;99.90;;;;;;4930675;28;20069;-89
2021/08/07 07:06:05;;;;;;;4.63;1.70;;;20.20;99.90;;;;;;4918797;29;20056;-90
2021/08/07 07:12:08;;;;;;;2.75;1.25;;;19.80;99.90;;;;;;4875698;29;20141;-90
2021/08/07 07:14:58;;;;;;;3.95;1.60;;;20.40;99.90;;;;;;4891425;29;20080;-92
2021/08/07 07:17:50;;;;;;;1.70;1.20;;;20.70;99.90;;;;;;4914976;29;20048;-89
2021/08/07 07:20:39;;;;;;;3.28;1.23;;;20.50;99.90;;;;;;4902119;29;20045;-93
2021/08/07 07:23:30;;;;;;;4.63;1.50;;;20.20;99.90;;;;;;4914128;29;20052;-91
2021/08/07 07:26:18;;;;;;;7.90;1.45;;;19.40;99.90;;;;;;4920223;29;20062;-89
2021/08/07 07:29:05;;;;;;;5.03;1.20;;;19.10;99.90;;;;;;4892351;29;20454;-89
2021/08/07 07:31:55;;;;;;;2.05;1.02;;;19.00;99.90;;;;;;4891330;29;20052;-89
2021/08/07 07:34:44;;;;;;;4.63;1.30;;;18.90;99.90;;;;;;4898638;29;20063;-91
2021/08/07 07:37:31;;;;;;;4.35;1.40;;;19.00;99.90;;;;;;4910432;29;20052;-93
2021/08/07 07:40:21;;;;;;;3.25;1.48;;;19.20;99.90;;;;;;4929653;29;20051;-90
2021/08/07 07:43:08;;;;;;;5.22;1.17;;;19.40;99.90;;;;;;4936129;29;20059;-90
2021/08/07 07:45:56;;;;;;;5.95;1.48;;;19.40;99.90;;;;;;4947792;28;20051;-89
2021/08/07 07:48:43;;;;;;;5.40;1.45;;;19.40;99.90;;;;;;4959404;28;20533;-89
2021/08/07 07:51:30;;;;;;;3.35;1.05;;;19.80;99.90;;;;;;4949206;28;20342;-88
2021/08/07 07:54:22;;;;;;;3.47;1.20;;;20.70;99.90;;;;;;4960319;28;20066;-88
2021/08/07 07:57:09;;;;;;;4.10;1.40;;;21.70;99.90;;;;;;4951758;29;20047;-89
2021/08/07 08:00:01;;;;;;;3.53;1.92;;;22.20;99.50;;;;;;4964832;28;20047;-91
2021/08/07 08:02:51;;;;;;;6.60;1.35;;;22.00;96.50;;;;;;4952652;28;20548;-90
2021/08/07 08:05:42;;;;;;;4.82;1.30;;;21.80;97.70;;;;;;4955611;29;20055;-87
2021/08/07 08:08:32;;;;;;;2.38;1.20;;;21.50;97.30;;;;;;4945589;28;20099;-92
2021/08/07 08:11:22;;;;;;;5.25;1.05;;;21.30;98.30;;;;;;4956761;29;20129;-93
2021/08/07 08:14:09;;;;;;;1.45;0.93;;;21.00;99.20;;;;;;4957069;29;20148;-91
2021/08/07 08:16:56;;;;;;;4.47;1.15;;;21.00;99.50;;;;;;4963251;28;20204;-90
2021/08/07 08:19:46;;;;;;;2.53;1.15;;;20.70;99.90;;;;;;4961320;28;20048;-92
2021/08/07 08:22:38;;;;;;;3.08;1.65;;;20.80;99.90;;;;;;4979233;28;20062;-90
2021/08/07 08:25:25;;;;;;;2.35;1.00;;;20.80;99.70;;;;;;4952577;28;20083;-89
2021/08/07 08:28:13;;;;;;;3.70;1.30;;;21.00;98.50;;;;;;4957908;28;20051;-92
2021/08/07 08:31:02;;;;;;;6.32;1.48;;;20.90;99.30;;;;;;4969892;28;20051;-92
2021/08/07 08:33:50;;;;;;;5.20;1.80;;;21.00;99.00;;;;;;4977801;28;20118;-90
2021/08/07 08:36:37;;;;;;;3.53;1.25;;;21.10;99.20;;;;;;4956415;29;20051;-90
2021/08/07 08:39:26;;;;;;;4.00;1.23;;;21.10;98.70;;;;;;4976237;28;20058;-90
2021/08/07 08:42:17;;;;;;;4.83;1.40;;;20.70;99.90;;;;;;4978764;28;20031;-90
2021/08/07 08:45:09;;;;;;;3.33;1.20;;;20.60;99.90;;;;;;4982182;28;20098;-91
2021/08/07 08:47:56;;;;;;;3.38;1.23;;;20.60;99.90;;;;;;4979101;28;20035;-90
2021/08/07 08:50:49;;;;;;;6.05;1.30;;;20.60;99.90;;;;;;4966641;28;20046;-90
2021/08/07 08:53:39;;;;;;;2.97;1.38;;;20.60;99.90;;;;;;4977211;28;20453;-89
2021/08/07 08:56:30;;;;;;;5.10;1.10;;;20.30;99.90;;;;;;4957268;29;20055;-91
2021/08/07 08:59:23;;;;;;;7.30;1.50;;;20.20;99.90;;;;;;4964203;28;20159;-90
2021/08/07 09:02:10;;;;;;;;;;;20.00;99.90;;;;;;4951213;28;20050;-89
2021/08/07 09:04:58;;;;;;;10.80;1.75;;;19.80;99.90;;;;;;4964551;28;19922;-91
2021/08/07 09:07:47;;;;;;;2.70;1.35;;;19.80;99.90;;;;;;4968533;28;20145;-90
2021/08/07 09:10:35;;;;;;;4.50;1.40;;;19.70;99.90;;;;;;4945152;28;20058;-90
2021/08/07 09:13:28;;;;;;;6.15;1.58;;;19.50;99.90;;;;;;4957030;28;20491;-91
2021/08/07 09:16:15;;;;;;;3.35;1.17;;;19.50;99.90;;;;;;4953436;28;20059;-92
2021/08/07 09:19:03;;;;;;;4.72;1.35;;;19.50;99.90;;;;;;4975175;28;20060;-93
2021/08/07 09:22:06;;;;;;;5.85;1.48;;;19.60;99.90;;;;;;4948488;28;20057;-91
2021/08/07 09:25:02;;;;;;;3.92;1.10;;;19.60;99.90;;;;;;4949008;28;20137;-93
2021/08/07 09:27:51;;;;;;;6.75;1.25;;;19.70;99.90;;;;;;4977252;28;20055;-90
2021/08/07 09:30:45;;;;;;;3.58;1.63;;;19.60;99.90;;;;;;4941590;28;20039;-90
2021/08/07 09:33:35;;;;;;;4.13;1.40;;;19.50;99.90;;;;;;4957625;28;20106;-91
2021/08/07 09:36:46;;;;;;;2.78;1.92;;;19.50;99.90;;;;;;4964330;28;20058;-89
2021/08/07 09:39:38;;;;;;;8.45;1.60;;;19.40;99.90;;;;;;4938128;28;20055;-93
2021/08/07 09:42:34;;;;;;;4.70;1.60;;;19.20;99.90;;;;;;4954146;28;20187;-93
2021/08/07 09:45:25;;;;;;;4.82;1.65;;;18.90;99.90;;;;;;4959420;28;20061;-91
2021/08/07 09:48:15;;;;;;;6.18;1.73;;;18.70;99.90;;;;;;4943526;28;20479;-91
2021/08/07 09:51:19;;;;;;;4.07;1.63;;;18.40;99.90;;;;;;4962365;28;20449;-91
2021/08/07 09:54:15;;;;;;;2.63;1.73;;;18.20;99.90;;;;;;4961160;28;20070;-92
2021/08/07 09:57:02;;;;;;;4.90;1.80;;;18.00;99.90;;;;;;4939256;28;20698;-92
2021/08/07 09:59:50;;;;;;;5.70;2.00;;;17.70;99.90;;;;;;4952788;28;20047;-89
2021/08/07 10:02:38;;;;;;;7.05;2.17;;;17.40;99.90;;;;;;4962469;28;20047;-89
2021/08/07 10:05:35;;;;;;;4.40;2.00;;;17.10;99.90;;;;;;4953692;28;20066;-90
2021/08/07 10:08:23;;;;;;;8.95;2.97;;;16.90;99.90;;;;;;4937953;28;20055;-88
2021/08/07 10:15:19;;;;;;;5.22;2.70;;;16.50;99.90;;;;;;4957831;28;20065;-90
2021/08/07 10:18:26;;;;;;;;;;;;;;;;;;;;;
2021/08/07 10:21:36;;;;;;;4.95;2.92;;;16.30;99.90;;;;;;4970263;28;20042;-90
2021/08/07 10:24:53;;;;;;;8.95;3.33;;;16.30;99.90;;;;;;4966128;28;20054;-91
2021/08/07 10:27:46;;;;;;;4.95;2.83;;;16.30;99.90;;;;;;4966050;28;20353;-93
2021/08/07 10:31:20;;;;;;;10.45;3.60;;;16.30;99.90;;;;;;4962068;28;20046;-92
2021/08/07 10:34:08;;;;;;;9.02;4.53;;;16.30;99.90;;;;;;4961780;28;20049;-88
2021/08/07 10:37:40;;;;;;;9.18;4.70;;;16.30;99.90;;;;;;4972874;28;20035;-91
2021/08/07 10:40:30;;;;;;;7.82;4.20;;;16.20;99.90;;;;;;4962878;28;20468;-92
2021/08/07 10:43:20;;;;;;;7.15;3.97;;;16.20;99.90;;;;;;4959198;28;20070;-90
2021/08/07 10:46:15;;;;;;;8.57;4.00;;;16.20;99.90;;;;;;4958236;28;20050;-90
2021/08/07 10:49:03;;;;;;;7.88;4.45;;;16.20;99.90;;;;;;4979576;28;20049;-90
2021/08/07 10:51:58;;;;;;;10.35;4.35;;;16.20;99.90;;;;;;4958626;28;20087;-89
2021/08/07 10:54:50;;;;;;;8.25;4.20;;;16.20;99.90;;;;;;4974939;28;20047;-90
2021/08/07 10:57:39;;;;;;;;;;;16.20;99.90;;;;;;4973392;28;20364;-89
2021/08/07 11:00:28;;;;;;;9.82;4.55;;;16.10;99.90;;;;;;4977143;28;20024;-89
2021/08/07 11:03:17;;;;;;;6.88;4.05;;;16.00;99.90;;;;;;4964280;28;20070;-90
2021/08/07 11:06:04;;;;;;;9.35;4.47;;;16.00;99.90;;;;;;4962410;28;20043;-89
2021/08/07 11:09:32;;;;;;;9.38;3.92;;;16.00;99.90;;;;;;4950773;28;20452;-90
2021/08/07 11:12:20;;;;;;;10.55;3.70;;;15.90;99.90;;;;;;4971654;28;20133;-89
2021/08/07 11:15:31;;;;;;;11.10;3.75;;;15.90;99.90;;;;;;4971448;28;20063;-88
2021/08/07 11:18:27;;;;;;;7.53;3.25;;;15.90;99.90;;;;;;4959590;28;20150;-87
2021/08/07 11:21:50;;;;;;;8.82;4.45;;;15.90;99.90;;;;;;4956999;28;20391;-88
2021/08/07 11:24:44;;;;;;;8.75;4.03;;;15.90;99.90;;;;;;4975820;28;20043;-88
2021/08/07 11:27:48;;;;;;;12.85;4.60;;;15.90;99.90;;;;;;4975878;28;20480;-88
2021/08/07 11:30:41;;;;;;;9.57;4.07;;;15.80;99.90;;;;;;4972413;28;20236;-88
2021/08/07 11:33:29;;;;;;;10.68;4.15;;;15.80;99.90;;;;;;4967839;28;20054;-91
2021/08/07 11:36:18;;;;;;;8.75;4.10;;;15.90;99.90;;;;;;4977576;28;20064;-91
2021/08/07 11:39:08;;;;;;;10.93;4.43;;;15.90;99.90;;;;;;4962757;28;20047;-90
2021/08/07 11:42:00;;;;;;;8.68;4.97;;;15.90;99.90;;;;;;4986144;28;20431;-89
2021/08/07 11:44:53;;;;;;;9.90;5.00;;;16.00;99.90;;;;;;4976863;28;20136;-91
2021/08/07 11:47:48;;;;;;;8.48;4.55;;;16.00;99.90;;;;;;4985405;28;20150;-88
2021/08/07 11:50:43;;;;;;;8.23;4.82;;;16.00;99.90;;;;;;4997287;28;20051;-93
2021/08/07 11:53:42;;;;;;;10.80;4.95;;;16.10;99.90;;;;;;4953094;28;20384;-92
2021/08/07 11:57:21;;;;;;;;;;;;;;;;;;;;;
2021/08/07 12:00:24;;;;;;;6.80;3.80;;;16.20;99.90;;;;;;4983597;28;20137;-92
2021/08/07 12:03:14;;;;;;;9.73;5.07;;;16.30;99.90;;;;;;4977205;28;20125;-91
2021/08/07 12:06:02;;;;;;;10.98;4.93;;;16.20;99.90;;;;;;4997359;28;20043;-91
2021/08/07 12:08:50;;;;;;;7.15;3.97;;;16.30;99.90;;;;;;4994754;28;20050;-90
2021/08/07 12:11:41;;;;;;;8.52;4.20;;;16.30;99.90;;;;;;4994996;28;20051;-91
2021/08/07 12:14:28;;;;;;;6.97;4.20;;;16.40;99.90;;;;;;4976958;28;20073;-88
2021/08/07 12:17:16;;;;;;;9.02;4.85;;;16.50;99.90;;;;;;4993121;28;20050;-90
2021/08/07 12:20:03;;;;;;;9.23;4.07;;;16.50;99.90;;;;;;4977466;28;20039;-92
2021/08/07 12:22:56;;;;;;;5.80;3.80;;;16.60;99.90;;;;;;4971854;28;20055;-88
2021/08/07 12:25:49;;;;;;;7.00;3.30;;;16.50;99.90;;;;;;4976570;28;20054;-88
2021/08/07 12:28:36;;;;;;;8.18;3.58;;;16.40;99.90;;;;;;4989608;28;20464;-87
2021/08/07 12:31:41;;;;;;;4.72;3.15;;;16.40;99.90;;;;;;4987265;28;20076;-91
2021/08/07 12:34:33;;;;;;;6.18;2.80;;;16.30;99.90;;;;;;4976044;28;20370;-90
2021/08/07 12:37:20;;;;;;;4.57;3.10;;;16.20;99.90;;;;;;4986335;28;20047;-89
2021/08/07 12:40:08;;;;;;;9.20;4.22;;;16.10;99.90;;;;;;4977625;28;20061;-89
2021/08/07 12:42:58;;;;;;;7.63;3.83;;;16.00;99.90;;;;;;4955985;29;20146;-90
2021/08/07 12:45:58;;;;;;;7.15;4.30;;;15.90;99.90;;;;;;4978817;28;20043;-88
2021/08/07 12:49:08;;;;;;;5.70;4.07;;;15.90;99.90;;;;;;4970991;28;20264;-87
2021/08/07 12:52:01;;;;;;;9.02;3.95;;;15.80;99.90;;;;;;4986785;28;20116;-89
2021/08/07 12:55:09;;;;;;;6.45;3.95;;;15.70;99.90;;;;;;4967328;28;20050;-88
2021/08/07 12:58:22;;;;;;;9.90;4.03;;;15.70;99.90;;;;;;4982197;28;20054;-89
2021/08/07 13:01:16;;;;;;;10.55;4.47;;;15.60;99.90;;;;;;4973931;28;20051;-86
2021/08/07 13:04:09;;;;;;;13.15;4.25;;;15.50;99.90;;;;;;4975003;28;20073;-89
2021/08/07 13:07:00;;;;;;;10.05;5.10;;;15.50;99.90;;;;;;4961442;28;20047;-86
2021/08/07 13:09:48;;;;;;;7.18;4.25;;;15.50;99.90;;;;;;4975719;28;20050;-89
2021/08/07 13:12:43;;;;;;;11.10;5.72;;;15.40;99.90;;;;;;4962750;28;20062;-86
2021/08/07 13:15:30;;;;;;;10.38;5.63;;;15.40;99.90;;;;;;4972376;28;20483;-86
2021/08/07 13:18:17;;;;;;;8.73;4.25;;;15.30;99.90;;;;;;4977777;28;20113;-87
2021/08/07 13:21:23;;;;;;;6.28;3.45;;;15.20;99.90;;;;;;4967158;28;20050;-86
2021/08/07 13:24:37;;;;;;;9.45;3.40;;;15.10;99.90;;;;;;4971193;28;20142;-87
2021/08/07 13:27:38;;;;;;;7.93;3.45;;;15.00;99.90;;;;;;4966448;28;20042;-89
2021/08/07 13:30:26;;;;;;;6.18;3.53;;;14.90;99.90;;;;;;4970096;28;20457;-87
2021/08/07 13:33:29;;;;;;;9.05;4.50;;;14.90;99.90;;;;;;4976968;28;20058;-86
2021/08/07 13:36:16;;;;;;;10.90;4.95;;;14.80;99.90;;;;;;4973943;28;20400;-87
2021/08/07 13:39:03;;;;;;;13.38;4.80;;;14.80;99.90;;;;;;4972124;28;20384;-86
2021/08/07 13:41:53;;;;;;;9.68;4.20;;;14.80;99.90;;;;;;4974998;28;20038;-86
2021/08/07 13:44:40;;;;;;;8.32;4.07;;;14.70;99.90;;;;;;4991481;28;20054;-87
2021/08/07 13:47:32;;;;;;;9.27;4.82;;;14.70;99.90;;;;;;4987173;28;20043;-86
2021/08/07 13:50:19;;;;;;;10.18;4.25;;;14.60;99.90;;;;;;4995478;28;20062;-86
2021/08/07 13:53:09;;;;;;;6.70;4.22;;;14.60;99.90;;;;;;4975750;28;20054;-85
2021/08/07 13:55:56;;;;;;;4.78;3.60;;;14.60;99.90;;;;;;4995939;28;20122;-87
2021/08/07 13:58:44;;;;;;;8.32;3.65;;;14.50;99.90;;;;;;4997925;28;20043;-86
2021/08/07 14:01:31;;;;;;;6.28;3.20;;;14.50;99.90;;;;;;4982685;28;20098;-88
2021/08/07 14:04:20;;;;;;;6.15;3.85;;;14.50;99.90;;;;;;4984335;28;20097;-86
2021/08/07 14:07:08;;;;;;;5.30;3.50;;;14.50;99.90;;;;;;4988459;28;20046;-87
2021/08/07 14:09:55;;;;;;;7.65;4.18;;;14.50;99.90;;;;;;4968917;28;20076;-86
2021/08/07 14:12:42;;;;;;;5.53;3.88;;;14.50;99.90;;;;;;4975772;28;20054;-89
2021/08/07 14:15:30;;;;;;;5.32;3.47;;;14.50;99.90;;;;;;4968893;28;20388;-87
2021/08/07 14:18:18;;;;;;;10.50;4.05;;;14.40;99.90;;;;;;4972531;28;20120;-85
2021/08/07 14:21:09;;;;;;;6.28;3.65;;;14.40;99.90;;;;;;4961226;28;20053;-84
2021/08/07 14:23:58;;;;;;;4.68;3.92;;;14.40;99.90;;;;;;4968209;28;20556;-86
2021/08/07 14:26:50;;;;;;;4.45;2.97;;;14.40;99.90;;;;;;4970960;28;20258;-85
2021/08/07 14:29:39;;;;;;;3.75;3.10;;;14.40;99.90;;;;;;4975114;28;20043;-86
2021/08/07 14:32:29;;;;;;;6.82;3.72;;;14.30;99.90;;;;;;4956113;28;20051;-84
2021/08/07 14:35:17;;;;;;;4.70;3.05;;;14.30;99.90;;;;;;4972671;28;20373;-88
2021/08/07 14:38:07;;;;;;;4.00;2.55;;;14.20;99.90;;;;;;4973944;28;20047;-86
2021/08/07 14:40:57;;;;;;;5.38;2.75;;;14.10;99.90;;;;;;4965095;28;20053;-84
2021/08/07 14:44:10;;;;;;;6.57;2.50;;;14.10;99.90;;;;;;4963064;28;20475;-85
2021/08/07 14:47:00;;;;;;;6.00;2.58;;;14.20;99.90;;;;;;4972120;28;20054;-87
2021/08/07 14:50:04;;;;;;;3.28;2.30;;;14.10;99.90;;;;;;4959788;28;20061;-87
2021/08/07 14:52:54;;;;;;;3.80;2.70;;;14.20;99.90;;;;;;4971460;28;20045;-86
2021/08/07 14:55:42;;;;;;;5.22;2.33;;;14.20;99.90;;;;;;4947797;28;20066;-86
2021/08/07 14:58:34;;;;;;;2.58;2.00;;;14.20;99.90;;;;;;4956318;28;20436;-86
2021/08/07 15:01:21;;;;;;;2.33;2.17;;;14.20;99.90;;;;;;4960702;28;20460;-84
2021/08/07 15:04:12;;;;;;;5.15;2.42;;;14.30;99.90;;;;;;4952561;28;20055;-86
2021/08/07 15:07:01;;;;;;;5.30;2.60;;;14.20;99.90;;;;;;4948743;28;20061;-88
2021/08/07 15:09:53;;;;;;;3.20;2.40;;;14.20;99.90;;;;;;4972754;28;20058;-89
2021/08/07 15:12:41;;;;;;;6.03;2.50;;;14.30;99.90;;;;;;4951772;28;20050;-86
2021/08/07 15:15:33;;;;;;;4.43;2.60;;;14.30;99.90;;;;;;4956308;28;20492;-85
2021/08/07 15:18:23;;;;;;;5.65;2.70;;;14.30;99.90;;;;;;4957118;28;20050;-84
2021/08/07 15:21:12;;;;;;;11.55;3.30;;;14.40;99.90;;;;;;4968062;28;20043;-84
2021/08/07 15:24:00;;;;;;;4.75;2.65;;;14.40;99.90;;;;;;4970361;28;20376;-85
2021/08/07 15:26:54;;;;;;;9.27;3.20;;;14.40;99.90;;;;;;4976740;28;20116;-85
2021/08/07 15:29:45;;;;;;;4.70;3.15;;;14.50;99.90;;;;;;4962282;28;20050;-85
2021/08/07 15:32:33;;;;;;;2.85;2.20;;;14.50;99.90;;;;;;4954795;28;20356;-84
2021/08/07 15:35:20;;;;;;;2.05;1.85;;;14.60;99.90;;;;;;4971021;28;20047;-87
2021/08/07 15:38:07;;;;;;;4.25;1.83;;;14.70;99.90;;;;;;4971691;28;20333;-84
2021/08/07 15:40:57;;;;;;;3.03;2.10;;;14.70;99.90;;;;;;4971336;28;20055;-83
2021/08/07 15:43:44;;;;;;;3.20;2.03;;;14.70;99.90;;;;;;4969416;28;20475;-83
2021/08/07 15:46:32;;;;;;;5.63;2.00;;;14.70;99.90;;;;;;4973153;28;20050;-82
2021/08/07 15:49:19;;;;;;;4.57;2.05;;;14.70;99.90;;;;;;4968688;28;20043;-83
2021/08/07 15:52:09;;;;;;;3.90;2.00;;;14.70;99.90;;;;;;4965937;28;20110;-84
2021/08/07 15:54:56;;;;;;;2.42;2.17;;;14.70;99.90;;;;;;4964193;28;20076;-84
2021/08/07 15:57:46;;;;;;;3.20;2.15;;;14.80;99.90;;;;;;4954121;28;20066;-84
2021/08/07 16:00:36;;;;;;;7.18;2.13;;;14.90;99.90;;;;;;4970681;28;20057;-86